createdAt,value
2023-04-08T00:04:43.357Z,8.29
2023-04-08T00:09:45.445Z,8.03
2023-04-08T00:14:47.195Z,8.17
2023-04-08T00:19:48.861Z,8.12
2023-04-08T00:24:50.669Z,8.04
2023-04-08T00:29:52.341Z,7.91
2023-04-08T00:34:54.099Z,7.94
2023-04-08T00:39:55.729Z,7.82
2023-04-08T00:44:57.379Z,7.92
2023-04-08T00:49:59.210Z,7.83
2023-04-08T00:55:01.070Z,7.83
2023-04-08T01:00:07.881Z,7.85
2023-04-08T01:05:12.845Z,7.94
2023-04-08T01:10:22.288Z,7.89
2023-04-08T01:15:29.769Z,7.95
2023-04-08T01:20:32.025Z,8.02
2023-04-08T01:25:36.716Z,7.82
2023-04-08T01:30:40.606Z,7.95
2023-04-08T01:35:42.775Z,7.71
2023-04-08T01:40:45.041Z,7.89
2023-04-08T01:45:49.723Z,7.80
2023-04-08T01:50:53.000Z,7.72
2023-04-08T01:56:03.977Z,7.85
2023-04-08T02:01:12.652Z,7.89
2023-04-08T02:06:14.495Z,7.73
2023-04-08T02:11:16.494Z,7.84
2023-04-08T02:17:02.003Z,7.67
2023-04-08T02:22:09.725Z,7.64
2023-04-08T02:27:11.801Z,7.66
2023-04-08T02:32:15.482Z,7.70
2023-04-08T02:37:17.286Z,7.63
2023-04-08T02:42:18.896Z,7.75
2023-04-08T02:47:20.850Z,7.75
2023-04-08T02:52:22.533Z,7.78
2023-04-08T02:57:24.116Z,7.74
2023-04-08T03:02:25.764Z,7.60
2023-04-08T03:07:27.836Z,7.59
2023-04-08T03:12:29.492Z,7.75
2023-04-08T03:17:33.976Z,7.73
2023-04-08T03:22:36.657Z,7.62
2023-04-08T03:27:38.308Z,7.60
2023-04-08T03:32:40.069Z,7.47
2023-04-08T03:37:41.725Z,7.46
2023-04-08T03:42:43.454Z,7.66
2023-04-08T03:47:45.066Z,7.54
2023-04-08T03:52:46.691Z,7.39
2023-04-08T03:57:48.393Z,7.38
2023-04-08T04:02:50.034Z,7.48
2023-04-08T04:07:51.765Z,7.27
2023-04-08T04:12:53.369Z,7.47
2023-04-08T04:17:54.996Z,7.34
2023-04-08T04:22:56.591Z,7.43
2023-04-08T04:27:58.304Z,7.41
2023-04-08T04:32:59.928Z,7.39
2023-04-08T04:38:01.704Z,7.53
2023-04-08T04:43:03.296Z,7.63
2023-04-08T04:48:05.197Z,7.35
2023-04-08T04:53:06.825Z,7.08
2023-04-08T04:58:08.427Z,7.57
2023-04-08T05:03:10.646Z,7.55
2023-04-08T05:08:12.500Z,7.52
2023-04-08T05:13:14.170Z,7.35
2023-04-08T05:18:15.777Z,7.53
2023-04-08T05:23:17.493Z,7.35
2023-04-08T05:28:19.090Z,7.37
2023-04-08T05:33:21.186Z,7.51
2023-04-08T05:38:22.791Z,7.45
2023-04-08T05:43:24.722Z,7.52
2023-04-08T05:48:26.340Z,7.55
2023-04-08T05:53:28.095Z,7.55
2023-04-08T05:58:29.708Z,7.61
2023-04-08T06:03:31.410Z,7.60
2023-04-08T06:08:33.062Z,7.48
2023-04-08T06:13:34.633Z,7.32
2023-04-08T06:18:36.226Z,7.44
2023-04-08T06:23:39.038Z,7.47
2023-04-08T06:28:40.934Z,7.37
2023-04-08T06:33:42.524Z,7.41
2023-04-08T06:38:44.083Z,7.41
2023-04-08T06:43:45.691Z,7.55
2023-04-08T06:48:47.347Z,7.20
2023-04-08T06:53:49.193Z,7.29
2023-04-08T06:58:51.190Z,7.26
2023-04-08T07:03:53.013Z,7.34
2023-04-08T07:08:54.661Z,7.46
2023-04-08T07:13:56.321Z,7.27
2023-04-08T07:18:58.543Z,7.07
2023-04-08T07:24:00.308Z,7.09
2023-04-08T07:29:01.882Z,7.42
2023-04-08T07:34:03.537Z,7.21
2023-04-08T07:39:05.601Z,7.24
2023-04-08T07:44:07.681Z,7.33
2023-04-08T07:49:10.158Z,7.35
2023-04-08T07:54:12.658Z,7.23
2023-04-08T07:59:14.245Z,7.06
2023-04-08T08:04:16.236Z,7.22
2023-04-08T08:09:17.932Z,7.19
2023-04-08T08:14:19.591Z,7.04
2023-04-08T08:19:21.505Z,7.06
2023-04-08T08:24:23.176Z,7.13
2023-04-08T08:29:25.118Z,7.19
2023-04-08T08:34:27.152Z,7.23
2023-04-08T08:39:28.810Z,7.03
2023-04-08T08:44:30.912Z,7.11
2023-04-08T08:49:32.516Z,6.83
2023-04-08T08:54:34.305Z,7.14
2023-04-08T08:59:36.139Z,7.06
2023-04-08T09:04:37.826Z,7.08
2023-04-08T09:09:52.627Z,6.98
2023-04-08T09:15:07.737Z,7.04
2023-04-08T09:20:13.877Z,7.04
2023-04-08T09:25:28.565Z,7.24
2023-04-08T09:30:32.537Z,7.13
2023-04-08T09:35:34.227Z,7.07
2023-04-08T09:40:37.325Z,7.00
2023-04-08T09:45:42.807Z,6.92
2023-04-08T09:50:49.658Z,7.26
2023-04-08T09:55:53.391Z,6.97
2023-04-08T10:00:55.728Z,7.15
2023-04-08T10:06:01.354Z,7.22
2023-04-08T10:11:03.067Z,7.17
2023-04-08T10:16:20.959Z,7.29
2023-04-08T10:21:48.693Z,7.23
2023-04-08T10:26:50.334Z,7.32
2023-04-08T10:31:52.010Z,7.17
2023-04-08T10:36:55.801Z,7.37
2023-04-08T10:41:57.611Z,7.35
2023-04-08T10:47:01.278Z,7.15
2023-04-08T10:52:07.473Z,7.43
2023-04-08T10:57:09.180Z,7.30
2023-04-08T11:02:15.426Z,7.43
2023-04-08T11:07:20.167Z,7.47
2023-04-08T11:12:22.730Z,7.42
2023-04-08T11:17:24.386Z,7.33
2023-04-08T11:22:27.338Z,7.37
2023-04-08T11:27:29.674Z,7.34
2023-04-08T11:32:31.560Z,7.37
2023-04-08T11:37:42.627Z,7.44
2023-04-08T11:42:46.006Z,7.24
2023-04-08T11:47:49.092Z,7.51
2023-04-08T11:52:52.685Z,7.61
2023-04-08T11:57:55.606Z,7.54
2023-04-08T12:02:57.403Z,7.54
2023-04-08T12:07:59.292Z,7.68
2023-04-08T12:13:01.159Z,7.70
2023-04-08T12:18:02.866Z,7.42
2023-04-08T12:23:04.469Z,7.47
2023-04-08T12:28:06.122Z,7.61
2023-04-08T12:33:07.769Z,7.27
2023-04-08T12:38:09.454Z,7.60
2023-04-08T12:43:11.914Z,7.51
2023-04-08T12:48:13.957Z,7.52
2023-04-08T12:53:15.766Z,7.68
2023-04-08T12:58:17.424Z,7.67
2023-04-08T13:03:19.162Z,7.30
2023-04-08T13:08:20.782Z,7.43
2023-04-08T13:13:22.514Z,7.59
2023-04-08T13:18:24.189Z,7.66
2023-04-08T13:23:26.056Z,7.52
2023-04-08T13:28:27.645Z,7.67
2023-04-08T13:33:29.236Z,7.75
2023-04-08T13:38:30.876Z,7.79
2023-04-08T13:43:32.646Z,7.79
2023-04-08T13:48:34.244Z,7.72
2023-04-08T13:53:35.917Z,7.70
2023-04-08T13:58:37.921Z,7.55
2023-04-08T14:03:39.510Z,7.65
2023-04-08T14:08:41.578Z,7.72
2023-04-08T14:13:43.164Z,7.49
2023-04-08T14:18:44.749Z,7.66
2023-04-08T14:23:46.826Z,7.58
2023-04-08T14:28:49.024Z,7.68
2023-04-08T14:33:50.925Z,7.66
2023-04-08T14:38:53.019Z,7.66
2023-04-08T14:43:55.032Z,7.71
2023-04-08T14:48:56.923Z,7.67
2023-04-08T14:53:58.703Z,7.67
2023-04-08T14:59:00.260Z,7.74
2023-04-08T15:04:02.226Z,7.67
2023-04-08T15:09:03.909Z,7.58
2023-04-08T15:14:05.540Z,7.57
2023-04-08T15:19:07.202Z,7.37
2023-04-08T15:24:08.778Z,7.38
2023-04-08T15:29:10.360Z,7.57
2023-04-08T15:34:11.968Z,7.33
2023-04-08T15:39:13.592Z,7.39
2023-04-08T15:44:15.742Z,7.34
2023-04-08T15:49:17.369Z,7.34
2023-04-08T15:54:19.298Z,7.10
2023-04-08T15:59:21.164Z,7.35
2023-04-08T16:04:23.094Z,7.34
2023-04-08T16:09:27.073Z,7.21
2023-04-08T16:14:31.076Z,7.14
2023-04-08T16:19:32.742Z,7.23
2023-04-08T16:24:37.416Z,7.11
2023-04-08T16:29:39.080Z,7.03
2023-04-08T16:34:40.661Z,7.17
2023-04-08T16:39:42.356Z,7.08
2023-04-08T16:44:43.956Z,7.20
2023-04-08T16:49:45.592Z,6.95
2023-04-08T16:54:47.626Z,7.04
2023-04-08T16:59:49.199Z,7.13
2023-04-08T17:04:51.032Z,7.09
2023-04-08T17:09:52.790Z,7.09
2023-04-08T17:14:54.361Z,7.00
2023-04-08T17:19:55.943Z,6.94
2023-04-08T17:24:57.584Z,6.78
2023-04-08T17:29:59.271Z,6.88
2023-04-08T17:35:01.213Z,6.90
2023-04-08T17:40:03.086Z,6.93
2023-04-08T17:45:05.614Z,6.87
2023-04-08T17:50:09.285Z,6.87
2023-04-08T17:55:13.818Z,6.88
2023-04-08T18:00:16.432Z,6.89
2023-04-08T18:05:18.212Z,6.83
2023-04-08T18:10:19.917Z,6.74
2023-04-08T18:15:21.592Z,6.78
2023-04-08T18:20:23.181Z,6.84
2023-04-08T18:25:24.860Z,6.85
2023-04-08T18:30:26.877Z,6.73
2023-04-08T18:35:28.506Z,6.72
2023-04-08T18:40:31.427Z,6.67
2023-04-08T18:45:33.198Z,6.70
2023-04-08T18:50:35.032Z,6.68
2023-04-08T18:55:38.734Z,6.74
2023-04-08T19:00:43.863Z,6.63
2023-04-08T19:05:46.594Z,6.71
2023-04-08T19:10:48.136Z,6.65
2023-04-08T19:15:50.083Z,6.67
2023-04-08T19:20:51.862Z,6.65
2023-04-08T19:25:53.558Z,6.60
2023-04-08T19:30:55.132Z,6.53
2023-04-08T19:35:57.499Z,6.53
2023-04-08T19:40:59.195Z,6.46
2023-04-08T19:46:00.858Z,6.63
2023-04-08T19:51:03.425Z,6.62
2023-04-08T19:56:05.091Z,6.25
2023-04-08T20:01:07.517Z,6.46
2023-04-08T20:06:09.296Z,6.45
2023-04-08T20:11:11.409Z,6.36
2023-04-08T20:16:13.511Z,6.44
2023-04-08T20:21:15.204Z,6.40
2023-04-08T20:26:16.886Z,6.12
2023-04-08T20:31:19.328Z,6.47
2023-04-08T20:36:22.188Z,6.17
2023-04-08T20:41:24.489Z,6.23
2023-04-08T20:46:26.222Z,6.35
2023-04-08T20:51:27.882Z,5.97
2023-04-08T20:56:29.609Z,6.05
2023-04-08T21:01:31.549Z,5.63
2023-04-08T21:06:33.197Z,6.08
2023-04-08T21:11:34.894Z,6.15
2023-04-08T21:16:36.596Z,5.94
2023-04-08T21:21:38.268Z,6.21
2023-04-08T21:26:39.900Z,5.74
2023-04-08T21:31:42.062Z,6.05
2023-04-08T21:36:43.711Z,6.21
2023-04-08T21:41:45.307Z,6.01
2023-04-08T21:46:49.103Z,5.78
2023-04-08T21:51:50.678Z,5.06
2023-04-08T21:56:52.275Z,5.50
2023-04-08T22:01:54.156Z,5.69
2023-04-08T22:06:56.320Z,5.92
2023-04-08T22:11:57.945Z,5.58
2023-04-08T22:16:59.738Z,5.75
2023-04-08T22:22:01.440Z,5.59
2023-04-08T22:27:03.864Z,5.64
2023-04-08T22:32:05.849Z,5.49
2023-04-08T22:37:07.422Z,5.34
2023-04-08T22:42:09.001Z,5.35
2023-04-08T22:47:10.950Z,5.86
2023-04-08T22:52:12.547Z,5.52
2023-04-08T22:57:14.207Z,5.67
2023-04-08T23:02:15.881Z,5.76
2023-04-08T23:07:17.567Z,5.71
2023-04-08T23:12:19.178Z,5.89
2023-04-08T23:17:20.999Z,5.95
2023-04-08T23:22:22.606Z,5.97
2023-04-08T23:27:24.187Z,5.98
2023-04-08T23:32:26.467Z,5.97
2023-04-08T23:37:29.010Z,5.95
2023-04-08T23:42:30.688Z,5.92
2023-04-08T23:47:32.329Z,5.54
2023-04-08T23:52:33.932Z,5.92
2023-04-08T23:57:35.564Z,5.70
